sensor_id;sensor_type;location;lat;lon;timestamp;temperature;humidity
17849;DHT22;9050;48.746;9.232;2022-10-16T20:14:50;16.10;99.90
17849;DHT22;9050;48.746;9.232;2022-10-16T20:17:17;16.00;99.90
17849;DHT22;9050;48.746;9.232;2022-10-16T20:19:44;16.00;99.90
17849;DHT22;9050;48.746;9.232;2022-10-16T20:22:11;16.00;99.90
17849;DHT22;9050;48.746;9.232;2022-10-16T20:24:38;15.90;99.90
17849;DHT22;9050;48.746;9.232;2022-10-16T20:27:05;16.00;99.90
17849;DHT22;9050;48.746;9.232;2022-10-16T20:29:32;16.00;99.90
17849;DHT22;9050;48.746;9.232;2022-10-16T20:32:00;16.00;99.90
17849;DHT22;9050;48.746;9.232;2022-10-16T20:34:27;16.00;99.90
17849;DHT22;9050;48.746;9.232;2022-10-16T20:36:54;15.90;99.90
17849;DHT22;9050;48.746;9.232;2022-10-16T20:39:21;15.90;99.90
17849;DHT22;9050;48.746;9.232;2022-10-16T20:41:48;15.90;99.90
17849;DHT22;9050;48.746;9.232;2022-10-16T20:44:14;15.90;99.90
17849;DHT22;9050;48.746;9.232;2022-10-16T20:46:41;15.90;99.90
17849;DHT22;9050;48.746;9.232;2022-10-16T20:49:09;15.90;99.90
17849;DHT22;9050;48.746;9.232;2022-10-16T20:51:37;15.90;99.90
17849;DHT22;9050;48.746;9.232;2022-10-16T20:54:05;15.90;99.90
17849;DHT22;9050;48.746;9.232;2022-10-16T20:56:34;15.90;99.90
17849;DHT22;9050;48.746;9.232;2022-10-16T20:59:01;15.90;99.90
17849;DHT22;9050;48.746;9.232;2022-10-16T21:01:28;15.90;99.90
17849;DHT22;9050;48.746;9.232;2022-10-16T21:03:57;15.90;99.90
17849;DHT22;9050;48.746;9.232;2022-10-16T21:06:28;15.90;99.90
17849;DHT22;9050;48.746;9.232;2022-10-16T21:08:54;15.90;99.90
17849;DHT22;9050;48.746;9.232;2022-10-16T21:11:23;15.90;99.90
17849;DHT22;9050;48.746;9.232;2022-10-16T21:13:52;16.00;99.90
17849;DHT22;9050;48.746;9.232;2022-10-16T21:16:19;16.10;99.90
17849;DHT22;9050;48.746;9.232;2022-10-16T21:18:47;16.20;99.90
17849;DHT22;9050;48.746;9.232;2022-10-16T21:21:20;16.40;99.90
17849;DHT22;9050;48.746;9.232;2022-10-16T21:23:50;16.40;99.90
17849;DHT22;9050;48.746;9.232;2022-10-16T21:26:18;16.50;99.90
17849;DHT22;9050;48.746;9.232;2022-10-16T21:28:47;16.50;99.90
17849;DHT22;9050;48.746;9.232;2022-10-16T21:31:16;16.40;99.90
17849;DHT22;9050;48.746;9.232;2022-10-16T21:33:44;16.40;99.90
17849;DHT22;9050;48.746;9.232;2022-10-16T21:36:12;16.30;99.90
17849;DHT22;9050;48.746;9.232;2022-10-16T21:38:40;16.20;99.90
17849;DHT22;9050;48.746;9.232;2022-10-16T21:41:16;16.20;99.90
17849;DHT22;9050;48.746;9.232;2022-10-16T21:43:44;16.20;99.90
17849;DHT22;9050;48.746;9.232;2022-10-16T21:46:12;16.10;99.90
17849;DHT22;9050;48.746;9.232;2022-10-16T21:48:39;16.00;99.90
17849;DHT22;9050;48.746;9.232;2022-10-16T21:51:07;16.00;99.90
17849;DHT22;9050;48.746;9.232;2022-10-16T21:53:34;15.90;99.90
17849;DHT22;9050;48.746;9.232;2022-10-16T21:56:01;15.90;99.90
17849;DHT22;9050;48.746;9.232;2022-10-16T21:58:31;15.80;99.90
17849;DHT22;9050;48.746;9.232;2022-10-16T22:01:04;15.80;99.90
17849;DHT22;9050;48.746;9.232;2022-10-16T22:03:31;15.70;99.90
17849;DHT22;9050;48.746;9.232;2022-10-16T22:06:00;15.70;99.90
17849;DHT22;9050;48.746;9.232;2022-10-16T22:08:26;15.70;99.90
17849;DHT22;9050;48.746;9.232;2022-10-16T22:10:53;15.70;99.90
17849;DHT22;9050;48.746;9.232;2022-10-16T22:13:27;15.70;99.90
17849;DHT22;9050;48.746;9.232;2022-10-16T22:15:56;15.70;99.90
17849;DHT22;9050;48.746;9.232;2022-10-16T22:18:23;15.60;99.90
17849;DHT22;9050;48.746;9.232;2022-10-16T22:20:50;15.70;99.90
17849;DHT22;9050;48.746;9.232;2022-10-16T22:23:17;15.70;99.90
17849;DHT22;9050;48.746;9.232;2022-10-16T22:25:44;15.70;99.90
17849;DHT22;9050;48.746;9.232;2022-10-16T22:28:11;15.60;99.90
17849;DHT22;9050;48.746;9.232;2022-10-16T22:30:39;15.60;99.90
17849;DHT22;9050;48.746;9.232;2022-10-16T22:33:07;15.50;99.90
17849;DHT22;9050;48.746;9.232;2022-10-16T22:35:35;15.40;99.90
17849;DHT22;9050;48.746;9.232;2022-10-16T22:38:03;15.40;99.90
17849;DHT22;9050;48.746;9.232;2022-10-16T22:40:32;15.40;99.90
17849;DHT22;9050;48.746;9.232;2022-10-16T22:42:59;15.20;99.90
17849;DHT22;9050;48.746;9.232;2022-10-16T22:45:28;15.20;99.90
17849;DHT22;9050;48.746;9.232;2022-10-16T22:47:55;15.20;99.90
17849;DHT22;9050;48.746;9.232;2022-10-16T22:50:24;15.10;99.90
17849;DHT22;9050;48.746;9.232;2022-10-16T22:52:52;15.00;99.90
17849;DHT22;9050;48.746;9.232;2022-10-16T22:55:19;14.90;99.90
17849;DHT22;9050;48.746;9.232;2022-10-16T22:57:47;14.90;99.90
17849;DHT22;9050;48.746;9.232;2022-10-16T23:00:16;14.80;99.90
17849;DHT22;9050;48.746;9.232;2022-10-16T23:02:44;14.70;99.90
17849;DHT22;9050;48.746;9.232;2022-10-16T23:05:11;14.70;99.90
17849;DHT22;9050;48.746;9.232;2022-10-16T23:07:39;14.60;99.90
17849;DHT22;9050;48.746;9.232;2022-10-16T23:10:07;14.70;99.90
17849;DHT22;9050;48.746;9.232;2022-10-16T23:12:35;14.70;99.90
17849;DHT22;9050;48.746;9.232;2022-10-16T23:15:02;14.80;99.90
17849;DHT22;9050;48.746;9.232;2022-10-16T23:17:29;14.80;99.90
17849;DHT22;9050;48.746;9.232;2022-10-16T23:19:56;14.80;99.90
17849;DHT22;9050;48.746;9.232;2022-10-16T23:22:24;14.70;99.90
17849;DHT22;9050;48.746;9.232;2022-10-16T23:24:52;14.60;99.90
17849;DHT22;9050;48.746;9.232;2022-10-16T23:27:19;14.50;99.90
17849;DHT22;9050;48.746;9.232;2022-10-16T23:29:45;14.40;99.90
17849;DHT22;9050;48.746;9.232;2022-10-16T23:32:12;14.40;99.90
17849;DHT22;9050;48.746;9.232;2022-10-16T23:34:39;14.50;99.90
17849;DHT22;9050;48.746;9.232;2022-10-16T23:37:06;14.50;99.90
17849;DHT22;9050;48.746;9.232;2022-10-16T23:39:33;14.40;99.90
17849;DHT22;9050;48.746;9.232;2022-10-16T23:42:01;14.40;99.90
17849;DHT22;9050;48.746;9.232;2022-10-16T23:44:28;14.50;99.90
17849;DHT22;9050;48.746;9.232;2022-10-16T23:46:55;14.50;99.90
17849;DHT22;9050;48.746;9.232;2022-10-16T23:49:22;14.50;99.90
17849;DHT22;9050;48.746;9.232;2022-10-16T23:51:49;14.60;99.90
17849;DHT22;9050;48.746;9.232;2022-10-16T23:54:16;14.70;99.90
17849;DHT22;9050;48.746;9.232;2022-10-16T23:56:43;14.90;99.90
17849;DHT22;9050;48.746;9.232;2022-10-16T23:59:11;14.90;99.90
